• Join FlightAware (Why Join?)
  • Login
  • US Flag 
11:11PM EST


 

Airport Tracker/Info


-or-


 

Live Flight TrackerFlight Track Log ✈ C-GJOL ✈ 12-Aug-2013 ✈ CEN4 - CYLW

Flight Track Log - Related Links

Times and Time Zones

All times are in EDT time to prevent confusion due to time zone crossing. See the C-GJOL flight status page for this flight to view local times or setup timezone preferences in your user account.

Time Position Orientation Groundspeed Altitude Reporting Facility
EDT Latitude Longitude Course Direction KTS MPH feet Rate Location/Type
05:19PM 50.5300 -113.8810 256° West 171 197 4,800  Level FlightAware
05:20PM 50.5270 -113.9080 260° West 191 220 6,000 3,360 Climbing FlightAware
05:20PM 50.5250 -113.9360 264° West 211 243 7,000 3,420 Climbing FlightAware
05:20PM 50.5220 -113.9760 263° West 217 250 8,600 3,780 Climbing FlightAware
05:21PM 50.5210 -113.9910 264° West 219 252 9,300 3,960 Climbing FlightAware
05:21PM 50.5160 -114.0490 262° West 233 268 11,600 2,340 Climbing FlightAware
05:22PM 50.5090 -114.1310 262° West 317 365 12,300 1,260 Climbing FlightAware
05:22PM 50.4970 -114.2280 259° West 351 404 13,300 3,240 Climbing FlightAware
05:23PM 50.4840 -114.3110 256° West 307 353 16,400 5,040 Climbing FlightAware
05:24PM 50.4740 -114.3710 255° West 283 326 18,800 3,840 Climbing FlightAware
05:24PM 50.4610 -114.4540 256° West 291 335 20,900 2,940 Climbing FlightAware
05:25PM 50.4530 -114.5180 259° West 297 342 22,300 2,820 Climbing FlightAware
05:25PM 50.4430 -114.5920 258° West 303 349 24,000 2,640 Climbing FlightAware
05:26PM 50.4330 -114.6700 259° West 314 361 25,400 2,400 Climbing FlightAware
05:27PM 50.4210 -114.7600 258° West 323 372 27,000 2,400 Climbing FlightAware
05:27PM 50.4130 -114.8320 260° West 332 382 28,200 2,100 Climbing FlightAware
05:28PM 50.4030 -114.9160 259° West 346 398 29,300 1,920 Climbing FlightAware
05:28PM 50.3930 -115.0060 260° West 356 410 30,500 2,040 Climbing FlightAware
05:29PM 50.3820 -115.0970 259° West 364 419 31,800 1,260 Climbing FlightAware
05:29PM 50.3710 -115.1930 260° West 400 460 32,000 120 Climbing FlightAware
05:30PM 50.3590 -115.2910 259° West 430 495 32,000  Level FlightAware
05:31PM 50.3440 -115.4080 259° West 449 517 32,000  Level FlightAware
05:31PM 50.3300 -115.5170 259° West 453 521 32,000  Level FlightAware
05:32PM 50.3160 -115.6320 259° West 453 521 32,000  Level FlightAware
05:32PM 50.3010 -115.7430 258° West 449 517 32,000  Level FlightAware
05:33PM 50.2860 -115.8540 258° West 446 513 32,000  Level FlightAware
05:33PM 50.2720 -115.9640 259° West 444 511 32,000  Level FlightAware
05:34PM 50.2570 -116.0740 258° West 443 510 32,000  Level FlightAware
05:35PM 50.2440 -116.1730 258° West 443 510 32,000  Level FlightAware
05:35PM 50.2250 -116.3280 259° West 442 509 32,000  Level FlightAware
05:36PM 50.2130 -116.4200 259° West 441 507 32,000  Level FlightAware
05:37PM 50.1980 -116.5450 259° West 443 510 32,000  Level FlightAware
05:37PM 50.1900 -116.6560 264° West 445 512 32,000  Level FlightAware
05:38PM 50.1840 -116.7530 265° West 447 514 32,000 -360 Level FlightAware
05:38PM 50.1750 -116.8750 263° West 447 514 31,600 -780 Descending FlightAware
05:39PM 50.1650 -116.9960 263° West 450 518 31,000 -480 Descending FlightAware
05:40PM 50.1570 -117.1060 264° West 450 518 31,000  Level FlightAware
05:40PM 50.1490 -117.2040 263° West 450 518 31,000  Level FlightAware
05:41PM 50.1410 -117.3030 263° West 450 518 31,000  Level FlightAware
05:41PM 50.1340 -117.3960 263° West 450 518 31,000  Level FlightAware
05:42PM 50.1270 -117.4890 263° West 450 518 31,000  Level FlightAware
05:43PM 50.1190 -117.5880 263° West 450 518 31,000  Level FlightAware
05:43PM 50.1110 -117.6870 263° West 450 518 31,000  Level FlightAware
05:44PM 50.1030 -117.7850 263° West 450 518 31,000  Level FlightAware
05:44PM 50.0950 -117.8840 263° West 450 518 31,000  Level FlightAware
05:45PM 50.0880 -117.9820 264° West 450 518 31,000 -11,700 Level FlightAware
05:46PM 50.0650 -118.2160 261° West 372 428 17,200 -11,760 Descending FlightAware
05:46PM 50.0570 -118.3080 262° West 373 429 16,900 -1,980 Descending FlightAware
05:47PM 50.0500 -118.3940 263° West 355 409 14,900 -1,680 Descending FlightAware
05:47PM 50.0420 -118.4800 262° West 355 409 14,900 -1,860 Level FlightAware
05:48PM 50.0320 -118.5880 262° West 328 377 12,600 -2,880 Descending FlightAware
05:48PM 50.0260 -118.6540 262° West 309 356 11,800 -720 Descending FlightAware
05:49PM 50.0180 -118.7270 260° West 309 356 11,800 -1,080 Level FlightAware
05:50PM 50.0140 -118.8300 267° West 286 329 10,300 -1,800 Descending FlightAware
05:50PM 50.0160 -118.8380 291° West 281 323 9,400 -2,340 Descending FlightAware
05:51PM 50.0150 -118.7950 92° East 281 323 8,700 -1,200 Descending FlightAware
05:51PM 50.0160 -118.8400 272° West 281 323 8,700  Level FlightAware
05:51PM 50.0160 -118.8810 270° West 281 323 8,700 -1,140 Level FlightAware
05:52PM 50.0170 -118.8350 88° East 224 258 7,600 -1,980 Descending FlightAware
05:52PM 50.0300 -119.0850 275° West 196 226 6,900 -1,620 Descending FlightAware
05:53PM 50.0320 -119.1080 278° West 196 226 6,500 -600 Descending FlightAware
05:53PM 50.0350 -119.1510 276° West 195 224 6,400 -720 Descending FlightAware
05:54PM 50.0360 -119.1930 272° West 184 212 5,800 -660 Descending FlightAware
05:54PM 50.0360 -119.2240 270° West 184 212 5,800 -1,020 Level FlightAware
05:55PM 50.0360 -119.1930 90° East 170 196 4,900 -1,680 Descending FlightAware
05:55PM 50.0310 -119.2850 265° West 163 188 4,500 -540 Descending FlightAware
05:55PM 50.0280 -119.3090 259° West 163 188 4,500 -1,200 Level FlightAware
05:57PM 49.9833 -119.3500 259° West 130 150 2,300 -1,200 Descending Vancouver Center
05:58PM 49.9500 -119.3667 198° South 110 127 1,600 -480 Descending Vancouver Center
05:59PM 49.9333 -119.3667 180° South 70 81 1,400 -240 Descending Vancouver Center